Fsl New York — 9VBQ8 — position and weather

sailwx.info

Track history (hours):
 
Tides and Currents Weather Stations Pressure Air Temp Water Temp Dewpoint Dewpoint Depression Visibility Wind Speed Wind Dir Waves Ship Positions

Fsl New York

Last reported at 2014-Sep-24 20:29 UTC. Time now 2014-Oct-02 04:27 UTC.
Position N 25°45' W 079°43'.

Length 138 m; draft 6.3 m.

Type: Tanker. MMSI: 565174000.

Date/timePositionNaut miles runAvg speedWind from/ knotsBaromVisibWave heightAir tempDewpointWater temp
2014-Sep-24 20:29N 25°45' W 079°43'1010.8
2014-Sep-24 19:33N 25°55' W 079°41'1110.7
2014-Sep-24 18:33N 26°06' W 079°40'1010.4
2014-Sep-24 17:33N 26°16' W 079°40'1010.4
2014-Sep-24 16:33N 26°26' W 079°40'1010.4
2014-Sep-24 15:33N 26°37' W 079°40'1110.2
2014-Sep-24 14:31N 26°47' W 079°40'  
2014-Sep-22 08:25N 36°50' W 075°49'1212.9
2014-Sep-22 07:30N 36°58' W 075°60'1414.3
2014-Sep-22 06:33N 37°10' W 076°09'7812.9
2014-Sep-22 00:33N 38°27' W 076°22'1313.4
2014-Sep-21 23:33N 38°40' W 076°26'1413.4
2014-Sep-21 22:33N 38°53' W 076°24'1312.8
2014-Sep-21 21:33N 39°06' W 076°24'1111.2
2014-Sep-21 20:33N 39°14' W 076°33'3 2.8
2014-Sep-21 19:33N 39°16' W 076°35'  
2014-Sep-19 10:33N 39°16' W 076°35'3 3.3
2014-Sep-19 09:33N 39°14' W 076°33'9 9.2
2014-Sep-19 08:33N 39°08' W 076°24'1312.8
2014-Sep-19 07:33N 38°55' W 076°24'1313.4
2014-Sep-19 06:33N 38°42' W 076°26'8613.2
2014-Sep-19 00:04N 37°17' W 076°07'713.7
2014-Sep-18 23:33N 37°10' W 076°09'1413.9
2014-Sep-18 22:33N 36°59' W 075°60'  
Track history (hours):
 
Tides and Currents Weather Stations Pressure Air Temp Water Temp Dewpoint Dewpoint Depression Visibility Wind Speed Wind Dir Waves Ship Positions

Fsl New York

Last reported at 2014-Sep-24 20:29 UTC. Time now 2014-Oct-02 04:27 UTC.
Position N 25°45' W 079°43'.

Length 138 m; draft 6.3 m.

Type: Tanker. MMSI: 565174000.

Date/timePositionNaut miles runAvg speedWind from/ knotsBaromVisibWave heightAir tempDewpointWater temp
2014-Sep-24 20:29N 25°45' W 079°43'1010.8
2014-Sep-24 19:33N 25°55' W 079°41'1110.7
2014-Sep-24 18:33N 26°06' W 079°40'1010.4
2014-Sep-24 17:33N 26°16' W 079°40'1010.4
2014-Sep-24 16:33N 26°26' W 079°40'1010.4
2014-Sep-24 15:33N 26°37' W 079°40'1110.2
2014-Sep-24 14:31N 26°47' W 079°40'  
2014-Sep-22 08:25N 36°50' W 075°49'1212.9
2014-Sep-22 07:30N 36°58' W 075°60'1414.3
2014-Sep-22 06:33N 37°10' W 076°09'7812.9
2014-Sep-22 00:33N 38°27' W 076°22'1313.4
2014-Sep-21 23:33N 38°40' W 076°26'1413.4
2014-Sep-21 22:33N 38°53' W 076°24'1312.8
2014-Sep-21 21:33N 39°06' W 076°24'1111.2
2014-Sep-21 20:33N 39°14' W 076°33'3 2.8
2014-Sep-21 19:33N 39°16' W 076°35'  
2014-Sep-19 10:33N 39°16' W 076°35'3 3.3
2014-Sep-19 09:33N 39°14' W 076°33'9 9.2
2014-Sep-19 08:33N 39°08' W 076°24'1312.8
2014-Sep-19 07:33N 38°55' W 076°24'1313.4
2014-Sep-19 06:33N 38°42' W 076°26'8613.2
2014-Sep-19 00:04N 37°17' W 076°07'713.7
2014-Sep-18 23:33N 37°10' W 076°09'1413.9
2014-Sep-18 22:33N 36°59' W 075°60'  

Dump ship's entire track history